Time;durP1;ratioP1;P1;durP2;ratioP2;P2;SDS_P1;SDS_P2;PMS_P1;PMS_P2;Temp;Humidity;BMP_temperature;BMP_pressure;BME280_temperature;BME280_humidity;BME280_pressure;Samples;Min_cycle;Max_cycle;Signal;HPM_P1;HPM_P2
2021/12/27 00:01:13;;;;;;;2.70;1.40;;;;;;;;;;5012880;28;20117;-71
2021/12/27 00:03:38;;;;;;;2.90;1.43;;;;;;;;;;5011719;28;20032;-72
2021/12/27 00:06:09;;;;;;;4.30;1.93;;;;;;;;;;5012823;28;20042;-71
2021/12/27 00:08:34;;;;;;;3.13;1.50;;;;;;;;;;5015106;28;20030;-72
2021/12/27 00:10:59;;;;;;;2.97;1.37;;;;;;;;;;5013129;28;20041;-73
2021/12/27 00:13:25;;;;;;;3.77;2.00;;;;;;;;;;5018096;28;20495;-73
2021/12/27 00:15:50;;;;;;;3.13;1.67;;;;;;;;;;5012674;28;20490;-73
2021/12/27 00:18:15;;;;;;;3.13;1.77;;;;;;;;;;5001020;28;20410;-72
2021/12/27 00:20:40;;;;;;;4.77;1.70;;;;;;;;;;5018839;28;20475;-72
2021/12/27 00:23:05;;;;;;;4.27;1.97;;;;;;;;;;5012060;28;20404;-72
2021/12/27 00:25:31;;;;;;;4.83;1.90;;;;;;;;;;5021992;28;20498;-72
2021/12/27 00:27:56;;;;;;;4.27;1.80;;;;;;;;;;5009339;28;20518;-71
2021/12/27 00:30:22;;;;;;;3.93;1.87;;;;;;;;;;5031733;28;20018;-72
2021/12/27 00:32:48;;;;;;;3.70;1.80;;;;;;;;;;5020072;28;20026;-72
2021/12/27 00:35:15;;;;;;;5.63;1.93;;;;;;;;;;5011513;28;20026;-72
2021/12/27 00:37:40;;;;;;;3.60;2.00;;;;;;;;;;5012910;28;20120;-73
2021/12/27 00:40:06;;;;;;;5.90;1.93;;;;;;;;;;5003194;28;20142;-72
2021/12/27 00:42:31;;;;;;;3.50;1.57;;;;;;;;;;5017732;28;20474;-72
2021/12/27 00:44:57;;;;;;;3.03;1.30;;;;;;;;;;5009990;28;20026;-72
2021/12/27 00:47:22;;;;;;;3.73;1.63;;;;;;;;;;5006770;28;20080;-72
2021/12/27 00:49:47;;;;;;;3.57;2.17;;;;;;;;;;5008489;28;20037;-71
2021/12/27 00:52:12;;;;;;;5.00;2.30;;;;;;;;;;5004527;28;20026;-72
2021/12/27 00:54:38;;;;;;;3.57;1.80;;;;;;;;;;5011510;28;20466;-71
2021/12/27 00:57:03;;;;;;;4.30;1.93;;;;;;;;;;5007634;28;20028;-72
2021/12/27 00:59:28;;;;;;;3.83;1.90;;;;;;;;;;5019908;28;20036;-72
2021/12/27 01:01:53;;;;;;;4.80;2.20;;;;;;;;;;4993348;28;20061;-72
2021/12/27 01:04:19;;;;;;;3.83;2.23;;;;;;;;;;5009384;28;20037;-73
2021/12/27 01:06:44;;;;;;;3.53;1.90;;;;;;;;;;5012677;28;20018;-73
2021/12/27 01:09:13;;;;;;;3.50;1.67;;;;;;;;;;5008292;28;20117;-72
2021/12/27 01:11:56;;;;;;;4.13;1.80;;;;;;;;;;5010824;28;20029;-71
2021/12/27 01:14:37;;;;;;;4.00;1.73;;;;;;;;;;5011106;28;20025;-72
2021/12/27 01:17:03;;;;;;;4.37;2.10;;;;;;;;;;5008708;28;20471;-72
2021/12/27 01:19:28;;;;;;;3.67;1.90;;;;;;;;;;5021681;28;20036;-72
2021/12/27 01:21:53;;;;;;;3.90;2.00;;;;;;;;;;5011899;28;20036;-73
2021/12/27 01:24:18;;;;;;;4.60;2.00;;;;;;;;;;5012011;28;20034;-72
2021/12/27 01:26:44;;;;;;;4.27;2.33;;;;;;;;;;4991665;28;20046;-72
2021/12/27 01:29:09;;;;;;;5.77;2.53;;;;;;;;;;4997882;28;20122;-73
2021/12/27 01:31:34;;;;;;;4.43;2.50;;;;;;;;;;4993799;28;20489;-72
2021/12/27 01:34:00;;;;;;;5.47;2.53;;;;;;;;;;5002730;28;20021;-72
2021/12/27 01:36:31;;;;;;;5.37;2.40;;;;;;;;;;5012553;28;20029;-73
2021/12/27 01:38:56;;;;;;;5.80;2.57;;;;;;;;;;4990256;28;20065;-72
2021/12/27 01:41:21;;;;;;;5.47;2.57;;;;;;;;;;5003459;28;20073;-72
2021/12/27 01:43:46;;;;;;;5.33;2.80;;;;;;;;;;4992282;28;20032;-71
2021/12/27 01:46:18;;;;;;;4.90;2.50;;;;;;;;;;4991065;28;20085;-73
2021/12/27 01:48:47;;;;;;;6.73;2.63;;;;;;;;;;4993396;28;20033;-73
2021/12/27 01:51:14;;;;;;;3.30;1.90;;;;;;;;;;5002903;28;20014;-73
2021/12/27 01:53:40;;;;;;;3.80;2.33;;;;;;;;;;4999003;28;20134;-72
2021/12/27 01:56:06;;;;;;;3.93;1.47;;;;;;;;;;4984036;28;20510;-73
2021/12/27 01:58:32;;;;;;;4.83;2.30;;;;;;;;;;5011195;28;20029;-72
2021/12/27 02:00:58;;;;;;;4.83;2.10;;;;;;;;;;4976807;28;20040;-72
2021/12/27 02:03:24;;;;;;;4.50;2.23;;;;;;;;;;4991688;28;20033;-72
2021/12/27 02:05:50;;;;;;;4.47;2.07;;;;;;;;;;4987639;28;20467;-72
2021/12/27 02:08:15;;;;;;;4.37;2.17;;;;;;;;;;4992072;28;20026;-73
2021/12/27 02:10:41;;;;;;;5.13;2.50;;;;;;;;;;4987722;28;20172;-72
2021/12/27 02:13:06;;;;;;;6.37;2.67;;;;;;;;;;4987786;28;20102;-72
2021/12/27 02:15:32;;;;;;;4.43;2.67;;;;;;;;;;4991287;28;20018;-72
2021/12/27 02:17:57;;;;;;;4.83;2.73;;;;;;;;;;4990002;28;20056;-72
2021/12/27 02:20:24;;;;;;;5.50;2.83;;;;;;;;;;4986483;28;20025;-72
2021/12/27 02:22:49;;;;;;;4.30;2.57;;;;;;;;;;4997157;28;20021;-71
2021/12/27 02:25:15;;;;;;;9.30;3.70;;;;;;;;;;4999023;28;20040;-72
2021/12/27 02:27:43;;;;;;;5.23;2.80;;;;;;;;;;4990414;28;20022;-71
2021/12/27 02:30:09;;;;;;;5.80;2.90;;;;;;;;;;4991628;28;20461;-70
2021/12/27 02:32:48;;;;;;;8.80;3.57;;;;;;;;;;4988085;28;20490;-71
2021/12/27 02:35:14;;;;;;;6.47;3.60;;;;;;;;;;4992142;28;20022;-73
2021/12/27 02:37:39;;;;;;;6.93;3.43;;;;;;;;;;4991155;28;20027;-72
2021/12/27 02:40:05;;;;;;;6.83;3.73;;;;;;;;;;4979037;28;20050;-73
2021/12/27 02:42:30;;;;;;;8.27;4.43;;;;;;;;;;4986996;28;20023;-71
2021/12/27 02:44:56;;;;;;;6.60;3.37;;;;;;;;;;4967949;28;20023;-73
2021/12/27 02:47:21;;;;;;;6.57;3.73;;;;;;;;;;4990290;28;20558;-71
2021/12/27 02:49:46;;;;;;;8.20;4.13;;;;;;;;;;4990004;28;20099;-71
2021/12/27 02:52:11;;;;;;;7.80;4.33;;;;;;;;;;4973438;28;20025;-72
2021/12/27 02:54:39;;;;;;;8.23;4.20;;;;;;;;;;4980342;28;20034;-72
2021/12/27 02:57:05;;;;;;;8.73;4.77;;;;;;;;;;4997460;28;20030;-72
2021/12/27 02:59:30;;;;;;;8.63;4.70;;;;;;;;;;4990212;28;20030;-71
2021/12/27 03:01:55;;;;;;;7.10;4.27;;;;;;;;;;4990336;28;20038;-72
2021/12/27 03:04:20;;;;;;;8.20;4.67;;;;;;;;;;5000313;28;20037;-71
2021/12/27 03:06:45;;;;;;;6.47;4.03;;;;;;;;;;4996933;28;20030;-72
2021/12/27 03:09:10;;;;;;;9.20;4.93;;;;;;;;;;4984401;28;20037;-72
2021/12/27 03:11:36;;;;;;;9.20;5.00;;;;;;;;;;4992795;28;20104;-72
2021/12/27 03:14:02;;;;;;;8.37;4.90;;;;;;;;;;5002616;28;20022;-72
2021/12/27 03:16:27;;;;;;;9.87;4.73;;;;;;;;;;5000292;28;20607;-72
2021/12/27 03:18:54;;;;;;;7.60;4.80;;;;;;;;;;4988076;28;20054;-72
2021/12/27 03:21:19;;;;;;;9.40;4.80;;;;;;;;;;4993402;28;20549;-71
2021/12/27 03:23:46;;;;;;;9.67;5.03;;;;;;;;;;4995140;28;20050;-73
2021/12/27 03:26:11;;;;;;;7.23;4.47;;;;;;;;;;4991973;28;20471;-73
2021/12/27 03:28:37;;;;;;;8.07;4.87;;;;;;;;;;4994321;28;20084;-72
2021/12/27 03:31:03;;;;;;;10.10;5.13;;;;;;;;;;4998969;28;20065;-72
2021/12/27 03:33:29;;;;;;;9.77;4.77;;;;;;;;;;4991768;28;20022;-71
2021/12/27 03:38:26;;;;;;;8.90;4.83;;;;;;;;;;4995579;28;20030;-72
2021/12/27 03:40:52;;;;;;;8.43;4.27;;;;;;;;;;5012465;28;20068;-72
2021/12/27 03:43:17;;;;;;;8.30;4.73;;;;;;;;;;5033162;28;20459;-73
2021/12/27 03:45:42;;;;;;;11.20;5.53;;;;;;;;;;5003134;28;20026;-72
2021/12/27 03:48:08;;;;;;;9.90;5.50;;;;;;;;;;5034676;28;20025;-72
2021/12/27 03:50:34;;;;;;;8.33;4.93;;;;;;;;;;5050382;28;20040;-73
2021/12/27 03:53:00;;;;;;;9.40;5.10;;;;;;;;;;5035434;28;20029;-71
2021/12/27 03:55:25;;;;;;;9.77;5.80;;;;;;;;;;5026802;28;20109;-72
2021/12/27 03:57:56;;;;;;;8.47;4.97;;;;;;;;;;5020160;28;20080;-72
2021/12/27 04:02:52;;;;;;;7.53;5.00;;;;;;;;;;5029947;28;20017;-72
2021/12/27 04:05:18;;;;;;;8.23;4.50;;;;;;;;;;5012007;28;20041;-73
2021/12/27 04:07:45;;;;;;;8.77;5.23;;;;;;;;;;5015889;28;20021;-72
2021/12/27 04:10:10;;;;;;;9.27;5.77;;;;;;;;;;5016564;28;20060;-72
2021/12/27 04:12:36;;;;;;;9.40;5.60;;;;;;;;;;5031744;28;20071;-72
2021/12/27 04:15:02;;;;;;;8.43;5.40;;;;;;;;;;4998063;28;20120;-72
2021/12/27 04:17:27;;;;;;;8.80;5.13;;;;;;;;;;5015179;28;20026;-72
2021/12/27 04:19:53;;;;;;;10.17;5.10;;;;;;;;;;5023967;28;20021;-73
2021/12/27 04:22:18;;;;;;;8.17;5.00;;;;;;;;;;5017775;28;20429;-73
2021/12/27 04:24:43;;;;;;;9.93;5.47;;;;;;;;;;5014577;28;20533;-72
2021/12/27 04:27:08;;;;;;;9.33;5.20;;;;;;;;;;5013098;28;20037;-73
2021/12/27 04:29:34;;;;;;;8.07;5.10;;;;;;;;;;5015479;28;20022;-73
2021/12/27 04:31:59;;;;;;;8.67;5.13;;;;;;;;;;5014540;28;20092;-71
2021/12/27 04:34:24;;;;;;;7.93;4.73;;;;;;;;;;5031965;28;20058;-73
2021/12/27 04:36:49;;;;;;;7.97;5.03;;;;;;;;;;5009681;28;20083;-72
2021/12/27 04:39:15;;;;;;;10.17;5.33;;;;;;;;;;5010706;28;20405;-73
2021/12/27 04:41:46;;;;;;;10.33;5.53;;;;;;;;;;5032762;28;20033;-72
2021/12/27 04:44:11;;;;;;;9.83;6.07;;;;;;;;;;5029753;28;20417;-72
2021/12/27 04:46:36;;;;;;;9.80;5.33;;;;;;;;;;5012160;28;20029;-72
2021/12/27 04:49:02;;;;;;;8.40;4.60;;;;;;;;;;5036220;28;20033;-73
2021/12/27 04:51:27;;;;;;;9.00;5.20;;;;;;;;;;5020896;28;20026;-72
2021/12/27 04:53:52;;;;;;;10.17;5.83;;;;;;;;;;5032428;28;20131;-72
2021/12/27 04:56:18;;;;;;;9.90;5.43;;;;;;;;;;5032601;28;20393;-71
2021/12/27 04:58:46;;;;;;;9.27;5.23;;;;;;;;;;5015340;28;20014;-72
2021/12/27 05:01:12;;;;;;;7.67;4.70;;;;;;;;;;5017537;28;20017;-72
2021/12/27 05:03:37;;;;;;;10.17;5.50;;;;;;;;;;5013781;28;20034;-72
2021/12/27 05:06:03;;;;;;;9.43;5.57;;;;;;;;;;5032470;28;20021;-73
2021/12/27 05:08:28;;;;;;;10.13;5.43;;;;;;;;;;5023173;28;20025;-72
2021/12/27 05:10:53;;;;;;;10.17;5.87;;;;;;;;;;5023547;28;20457;-72
2021/12/27 05:13:18;;;;;;;9.97;5.70;;;;;;;;;;4998153;28;20030;-72
2021/12/27 05:15:44;;;;;;;10.47;5.90;;;;;;;;;;5032844;28;20025;-72
2021/12/27 05:18:09;;;;;;;10.13;5.70;;;;;;;;;;5028840;28;20030;-72
2021/12/27 05:20:35;;;;;;;9.50;5.77;;;;;;;;;;5009117;28;20030;-72
2021/12/27 05:23:00;;;;;;;9.27;5.53;;;;;;;;;;5014079;28;20029;-73
2021/12/27 05:25:25;;;;;;;10.73;5.97;;;;;;;;;;5050198;28;20102;-72
2021/12/27 05:27:50;;;;;;;10.93;5.73;;;;;;;;;;5034501;28;20021;-73
2021/12/27 05:30:16;;;;;;;9.67;5.60;;;;;;;;;;5030207;28;20033;-73
2021/12/27 05:32:43;;;;;;;9.57;5.37;;;;;;;;;;5031856;28;20017;-72
2021/12/27 05:35:09;;;;;;;9.33;5.80;;;;;;;;;;5031771;28;20032;-71
2021/12/27 05:37:34;;;;;;;10.40;5.80;;;;;;;;;;5033372;28;20022;-72
2021/12/27 05:40:04;;;;;;;9.63;6.00;;;;;;;;;;5030115;28;20468;-71
2021/12/27 05:42:30;;;;;;;9.17;5.63;;;;;;;;;;5031614;28;20027;-73
2021/12/27 05:44:55;;;;;;;11.03;6.80;;;;;;;;;;5028773;28;20021;-73
2021/12/27 05:47:20;;;;;;;10.27;6.23;;;;;;;;;;5031748;28;20104;-72
2021/12/27 05:49:46;;;;;;;9.13;5.77;;;;;;;;;;5029756;28;20021;-72
2021/12/27 05:52:11;;;;;;;11.90;6.23;;;;;;;;;;5005891;28;20072;-72
2021/12/27 05:54:36;;;;;;;8.53;5.70;;;;;;;;;;5023721;28;20091;-72
2021/12/27 05:57:01;;;;;;;10.67;6.17;;;;;;;;;;5001468;28;20105;-72
2021/12/27 05:59:26;;;;;;;10.50;6.27;;;;;;;;;;5013330;28;20060;-73
2021/12/27 06:01:52;;;;;;;12.27;6.57;;;;;;;;;;5008287;28;20044;-73
2021/12/27 06:04:17;;;;;;;11.07;6.30;;;;;;;;;;5013479;28;20025;-73
2021/12/27 06:06:42;;;;;;;9.63;5.47;;;;;;;;;;5031547;28;20025;-73
2021/12/27 06:09:08;;;;;;;10.53;5.97;;;;;;;;;;5010066;28;20041;-72
2021/12/27 06:11:33;;;;;;;9.97;5.90;;;;;;;;;;5025351;28;20414;-72
2021/12/27 06:13:58;;;;;;;10.40;6.33;;;;;;;;;;5031698;28;20057;-73
2021/12/27 06:16:23;;;;;;;11.43;6.37;;;;;;;;;;5032033;28;20378;-72
2021/12/27 06:18:49;;;;;;;11.00;6.50;;;;;;;;;;5010937;28;20375;-72
2021/12/27 06:21:14;;;;;;;10.67;6.33;;;;;;;;;;5012938;28;20029;-72
2021/12/27 06:23:39;;;;;;;12.87;7.00;;;;;;;;;;5031265;28;20035;-71
2021/12/27 06:26:04;;;;;;;11.63;7.07;;;;;;;;;;5013520;28;20394;-72
2021/12/27 06:28:31;;;;;;;11.53;6.67;;;;;;;;;;5022225;28;20079;-72
2021/12/27 06:30:57;;;;;;;12.80;7.13;;;;;;;;;;5012035;28;20402;-73
2021/12/27 06:33:22;;;;;;;12.60;7.53;;;;;;;;;;4993058;28;20030;-73
2021/12/27 06:35:47;;;;;;;10.30;7.03;;;;;;;;;;5023861;28;20466;-72
2021/12/27 06:38:12;;;;;;;10.97;7.20;;;;;;;;;;5013708;28;20017;-73
2021/12/27 06:40:38;;;;;;;11.37;7.10;;;;;;;;;;5030025;28;20068;-72
2021/12/27 06:43:03;;;;;;;15.17;8.53;;;;;;;;;;5015708;28;20037;-72
2021/12/27 06:45:28;;;;;;;13.73;8.03;;;;;;;;;;5004325;28;20036;-72
2021/12/27 06:47:53;;;;;;;12.83;7.60;;;;;;;;;;5016652;28;20030;-73
2021/12/27 06:50:19;;;;;;;11.67;7.20;;;;;;;;;;5034526;28;20029;-72
2021/12/27 06:52:44;;;;;;;14.67;8.27;;;;;;;;;;5015292;28;20022;-72
2021/12/27 06:55:10;;;;;;;13.77;8.37;;;;;;;;;;5012409;28;20018;-72
2021/12/27 06:57:35;;;;;;;13.73;8.67;;;;;;;;;;5044685;28;20104;-72
2021/12/27 07:00:04;;;;;;;12.67;7.70;;;;;;;;;;5003533;28;20028;-73
2021/12/27 07:02:29;;;;;;;13.07;7.50;;;;;;;;;;5026610;28;20021;-71
2021/12/27 07:04:54;;;;;;;11.77;7.60;;;;;;;;;;5026285;28;20021;-73
2021/12/27 07:07:19;;;;;;;11.53;7.80;;;;;;;;;;5034375;28;20040;-72
2021/12/27 07:09:44;;;;;;;14.73;9.17;;;;;;;;;;5014866;28;20033;-73
2021/12/27 07:12:10;;;;;;;14.63;8.27;;;;;;;;;;5004674;28;20036;-72
2021/12/27 07:14:35;;;;;;;13.40;8.70;;;;;;;;;;5034766;28;20079;-73
2021/12/27 07:17:00;;;;;;;13.63;8.50;;;;;;;;;;5019814;28;20029;-73
2021/12/27 07:19:26;;;;;;;14.07;8.60;;;;;;;;;;5040860;28;20071;-72
2021/12/27 07:21:51;;;;;;;14.80;9.13;;;;;;;;;;5042282;28;20029;-72
2021/12/27 07:24:16;;;;;;;14.57;8.43;;;;;;;;;;5016255;28;20040;-73
2021/12/27 07:26:41;;;;;;;12.10;7.80;;;;;;;;;;5034596;28;20035;-73
2021/12/27 07:29:06;;;;;;;13.43;8.20;;;;;;;;;;5014536;28;20332;-72
2021/12/27 07:31:31;;;;;;;14.03;8.33;;;;;;;;;;5016500;28;20103;-73
2021/12/27 07:33:57;;;;;;;14.50;9.17;;;;;;;;;;5031710;28;20017;-72
2021/12/27 07:36:22;;;;;;;12.63;8.07;;;;;;;;;;4991504;28;20129;-72
2021/12/27 07:38:47;;;;;;;13.63;8.67;;;;;;;;;;5005761;28;20036;-73
2021/12/27 07:41:13;;;;;;;11.33;8.03;;;;;;;;;;5024084;28;20141;-72
2021/12/27 07:43:38;;;;;;;12.87;8.07;;;;;;;;;;5012750;28;20034;-72
2021/12/27 07:46:03;;;;;;;12.50;7.53;;;;;;;;;;5013854;28;20085;-72
2021/12/27 07:48:28;;;;;;;14.60;7.90;;;;;;;;;;4995699;28;20029;-71
2021/12/27 07:50:54;;;;;;;13.50;7.73;;;;;;;;;;5019301;28;20100;-72
2021/12/27 07:53:19;;;;;;;12.80;8.23;;;;;;;;;;5015762;28;20021;-72
2021/12/27 07:55:44;;;;;;;12.03;7.30;;;;;;;;;;5015027;28;20089;-73
2021/12/27 07:58:10;;;;;;;10.60;7.60;;;;;;;;;;5012370;28;20018;-73
2021/12/27 08:00:35;;;;;;;13.63;7.00;;;;;;;;;;5012500;28;20117;-73
2021/12/27 08:03:00;;;;;;;11.17;6.73;;;;;;;;;;5013340;28;20041;-72
2021/12/27 08:05:26;;;;;;;11.30;7.07;;;;;;;;;;5013685;28;20025;-72
2021/12/27 08:07:51;;;;;;;11.43;7.00;;;;;;;;;;5019847;28;20462;-72
2021/12/27 08:10:16;;;;;;;11.90;7.07;;;;;;;;;;5010410;28;20510;-73
2021/12/27 08:12:41;;;;;;;11.20;6.80;;;;;;;;;;5013200;28;20463;-72
2021/12/27 08:15:07;;;;;;;9.70;6.83;;;;;;;;;;5004212;28;20543;-72
2021/12/27 08:17:33;;;;;;;11.03;6.40;;;;;;;;;;5010231;28;20069;-73
2021/12/27 08:19:58;;;;;;;9.93;5.63;;;;;;;;;;5013334;28;20077;-73
2021/12/27 08:22:24;;;;;;;8.53;5.63;;;;;;;;;;5010952;28;20032;-73
2021/12/27 08:24:49;;;;;;;7.90;5.23;;;;;;;;;;5012356;28;20041;-72
2021/12/27 08:27:15;;;;;;;8.00;5.33;;;;;;;;;;5016159;28;20030;-73
2021/12/27 08:29:40;;;;;;;8.23;5.50;;;;;;;;;;5012889;28;20108;-71
2021/12/27 08:32:05;;;;;;;8.27;5.30;;;;;;;;;;5011996;28;20029;-72
2021/12/27 08:34:32;;;;;;;8.50;5.33;;;;;;;;;;5000934;28;20018;-72
2021/12/27 08:36:57;;;;;;;10.03;5.90;;;;;;;;;;4995115;28;20061;-72
2021/12/27 08:39:22;;;;;;;7.57;5.27;;;;;;;;;;5007158;28;20120;-72
2021/12/27 08:41:47;;;;;;;8.20;4.83;;;;;;;;;;5031218;28;20041;-73
2021/12/27 08:44:13;;;;;;;7.73;5.33;;;;;;;;;;5031579;28;20021;-73
2021/12/27 08:46:41;;;;;;;9.50;6.50;;;;;;;;;;5014454;28;20030;-73
2021/12/27 08:49:06;;;;;;;9.87;5.77;;;;;;;;;;5013566;28;20521;-72
2021/12/27 08:51:32;;;;;;;9.83;5.93;;;;;;;;;;5032016;28;20032;-71
2021/12/27 08:53:57;;;;;;;9.20;4.90;;;;;;;;;;5013926;28;20022;-72
2021/12/27 08:56:22;;;;;;;8.63;5.40;;;;;;;;;;5013689;28;20027;-71
2021/12/27 08:58:51;;;;;;;9.63;5.53;;;;;;;;;;5019721;28;20110;-71
2021/12/27 09:01:19;;;;;;;8.53;5.37;;;;;;;;;;5019292;28;20389;-72
2021/12/27 09:03:44;;;;;;;7.67;4.80;;;;;;;;;;5000033;28;20030;-72
2021/12/27 09:06:09;;;;;;;7.83;4.77;;;;;;;;;;5008948;28;20032;-72
2021/12/27 09:08:35;;;;;;;8.13;5.17;;;;;;;;;;5014021;28;20049;-72
2021/12/27 09:11:00;;;;;;;7.07;4.77;;;;;;;;;;5031077;28;20386;-73
2021/12/27 09:13:26;;;;;;;7.87;4.73;;;;;;;;;;5014169;28;20671;-73
2021/12/27 09:15:51;;;;;;;7.33;4.90;;;;;;;;;;5020690;28;20021;-72
2021/12/27 09:18:17;;;;;;;5.90;4.33;;;;;;;;;;5013993;28;20482;-72
2021/12/27 09:20:42;;;;;;;7.05;4.60;;;;;;;;;;5031061;28;20116;-72
2021/12/27 09:23:07;;;;;;;6.17;4.33;;;;;;;;;;5014416;28;20029;-72
2021/12/27 09:25:32;;;;;;;7.45;4.80;;;;;;;;;;5032402;28;20025;-71
2021/12/27 09:27:57;;;;;;;5.90;4.18;;;;;;;;;;4997888;28;20033;-73
2021/12/27 09:30:23;;;;;;;7.10;4.43;;;;;;;;;;4996250;28;20029;-71
2021/12/27 09:32:50;;;;;;;5.50;4.18;;;;;;;;;;5013035;28;20030;-70
2021/12/27 09:35:16;;;;;;;7.05;4.30;;;;;;;;;;5013829;28;20079;-72
2021/12/27 09:37:41;;;;;;;5.75;3.75;;;;;;;;;;5013920;28;20033;-72
2021/12/27 09:40:06;;;;;;;6.78;4.43;;;;;;;;;;5004803;28;20112;-73
2021/12/27 09:42:35;;;;;;;5.95;4.57;;;;;;;;;;5013422;28;20140;-68
2021/12/27 09:45:00;;;;;;;7.30;4.78;;;;;;;;;;5013495;28;20029;-68
2021/12/27 09:47:26;;;;;;;6.55;4.18;;;;;;;;;;5013290;28;20092;-68
2021/12/27 09:49:51;;;;;;;7.45;4.47;;;;;;;;;;5035798;28;20017;-68
2021/12/27 09:52:16;;;;;;;5.97;3.83;;;;;;;;;;5031254;28;20036;-67
2021/12/27 09:54:44;;;;;;;6.57;4.55;;;;;;;;;;5014143;28;20021;-68
2021/12/27 09:57:09;;;;;;;5.97;4.38;;;;;;;;;;5031640;28;20466;-68
2021/12/27 09:59:35;;;;;;;6.05;3.85;;;;;;;;;;5013603;28;20120;-69
2021/12/27 10:02:00;;;;;;;7.25;4.82;;;;;;;;;;5013066;28;20030;-69
2021/12/27 10:04:25;;;;;;;6.40;4.38;;;;;;;;;;5029034;28;20620;-69
2021/12/27 10:06:52;;;;;;;6.03;4.28;;;;;;;;;;5013654;28;20032;-68
2021/12/27 10:09:17;;;;;;;6.35;4.20;;;;;;;;;;5026630;28;20033;-69
2021/12/27 10:11:44;;;;;;;5.97;4.10;;;;;;;;;;5029592;28;20021;-69
2021/12/27 10:14:10;;;;;;;5.80;4.05;;;;;;;;;;5030923;28;20021;-68
2021/12/27 10:16:47;;;;;;;6.30;4.30;;;;;;;;;;5013864;28;20449;-69
2021/12/27 10:19:15;;;;;;;5.75;4.32;;;;;;;;;;5030620;28;20033;-67
2021/12/27 10:21:41;;;;;;;5.65;4.07;;;;;;;;;;5013392;28;20026;-68
2021/12/27 10:24:09;;;;;;;6.72;4.72;;;;;;;;;;5040683;28;20037;-68
2021/12/27 10:26:35;;;;;;;5.55;4.03;;;;;;;;;;5040306;28;20032;-68
2021/12/27 10:29:14;;;;;;;5.40;4.07;;;;;;;;;;5028585;28;20120;-67
2021/12/27 10:31:48;;;;;;;7.30;4.97;;;;;;;;;;5013311;28;20033;-69
2021/12/27 10:34:14;;;;;;;5.15;3.80;;;;;;;;;;5028214;28;20018;-70
2021/12/27 10:36:55;;;;;;;6.13;4.00;;;;;;;;;;5013380;28;20541;-70
2021/12/27 10:39:21;;;;;;;6.05;4.10;;;;;;;;;;5027452;28;20025;-70
2021/12/27 10:41:46;;;;;;;5.43;3.97;;;;;;;;;;5029809;28;20111;-69
2021/12/27 10:44:12;;;;;;;7.28;4.47;;;;;;;;;;5013234;28;20033;-70
2021/12/27 10:46:38;;;;;;;7.45;4.45;;;;;;;;;;5031317;28;20029;-70
2021/12/27 10:49:03;;;;;;;8.40;5.07;;;;;;;;;;5010765;28;20044;-69
2021/12/27 10:51:28;;;;;;;6.22;4.50;;;;;;;;;;4993860;28;20030;-70
2021/12/27 10:53:55;;;;;;;7.45;4.68;;;;;;;;;;5011897;28;20022;-69
2021/12/27 10:56:22;;;;;;;6.50;4.78;;;;;;;;;;5013080;28;20057;-69
2021/12/27 10:58:50;;;;;;;6.53;5.13;;;;;;;;;;5025497;28;20014;-70
2021/12/27 11:01:18;;;;;;;6.32;5.00;;;;;;;;;;5031334;28;20045;-68
2021/12/27 11:03:44;;;;;;;7.97;5.32;;;;;;;;;;5030526;28;20021;-69
2021/12/27 11:06:10;;;;;;;7.07;4.43;;;;;;;;;;4997334;28;20025;-68
2021/12/27 11:08:36;;;;;;;5.10;3.65;;;;;;;;;;5006928;28;20034;-71
2021/12/27 11:11:01;;;;;;;8.20;4.78;;;;;;;;;;5018162;28;20029;-62
2021/12/27 11:13:27;;;;;;;6.65;4.13;;;;;;;;;;5031188;28;20385;-65
2021/12/27 11:15:52;;;;;;;6.00;4.10;;;;;;;;;;5029964;28;20389;-69
2021/12/27 11:18:18;;;;;;;5.68;3.80;;;;;;;;;;5023640;28;20160;-70
2021/12/27 11:20:50;;;;;;;5.60;3.67;;;;;;;;;;5010572;28;20457;-71
2021/12/27 11:23:15;;;;;;;5.72;3.97;;;;;;;;;;5031113;28;20057;-71
2021/12/27 11:25:43;;;;;;;5.53;3.80;;;;;;;;;;5014515;28;20072;-71
2021/12/27 11:28:27;;;;;;;6.25;3.55;;;;;;;;;;5033938;28;20048;-71
2021/12/27 11:30:53;;;;;;;4.70;3.35;;;;;;;;;;5033703;28;20029;-71
2021/12/27 11:33:20;;;;;;;5.68;3.33;;;;;;;;;;5033618;28;20048;-70
2021/12/27 11:35:55;;;;;;;3.92;3.38;;;;;;;;;;5034626;28;20010;-71
2021/12/27 11:38:49;;;;;;;4.53;3.35;;;;;;;;;;5034377;28;20010;-70
2021/12/27 11:41:28;;;;;;;4.57;3.10;;;;;;;;;;5017142;28;20053;-71
2021/12/27 11:43:53;;;;;;;5.68;3.65;;;;;;;;;;5034169;28;20033;-71
2021/12/27 11:46:19;;;;;;;5.18;3.65;;;;;;;;;;5016382;28;20032;-71
2021/12/27 11:48:46;;;;;;;6.68;4.28;;;;;;;;;;5033530;28;20029;-72
2021/12/27 11:51:11;;;;;;;5.43;3.97;;;;;;;;;;5034068;28;20156;-70
2021/12/27 11:53:48;;;;;;;5.55;4.10;;;;;;;;;;5009947;28;20116;-71
2021/12/27 11:56:36;;;;;;;4.38;3.25;;;;;;;;;;5032728;28;20013;-70
2021/12/27 11:59:22;;;;;;;4.97;4.15;;;;;;;;;;5008348;28;20033;-70
2021/12/27 12:01:48;;;;;;;5.05;3.28;;;;;;;;;;5015826;28;20028;-70
2021/12/27 12:04:33;;;;;;;5.40;3.58;;;;;;;;;;5032861;28;20022;-70
2021/12/27 12:06:59;;;;;;;5.25;4.18;;;;;;;;;;5034104;28;20374;-70
2021/12/27 12:09:24;;;;;;;5.45;3.88;;;;;;;;;;5029421;28;20034;-71
2021/12/27 12:12:00;;;;;;;4.43;3.55;;;;;;;;;;5015003;28;20031;-71
2021/12/27 12:14:29;;;;;;;5.32;4.25;;;;;;;;;;5032935;28;20100;-71
2021/12/27 12:16:55;;;;;;;5.32;3.92;;;;;;;;;;5034110;28;20027;-71
2021/12/27 12:19:37;;;;;;;5.40;3.75;;;;;;;;;;5032725;28;20029;-72
2021/12/27 12:22:03;;;;;;;4.95;4.10;;;;;;;;;;5031633;28;20462;-71
2021/12/27 12:24:28;;;;;;;5.97;3.90;;;;;;;;;;5032031;28;20045;-71
2021/12/27 12:26:53;;;;;;;5.25;3.88;;;;;;;;;;5031863;28;20033;-70
2021/12/27 12:29:19;;;;;;;5.55;4.28;;;;;;;;;;5033217;28;20021;-70
2021/12/27 12:31:44;;;;;;;6.18;3.90;;;;;;;;;;5032282;28;20032;-70
2021/12/27 12:34:21;;;;;;;5.97;4.72;;;;;;;;;;5032469;28;20152;-70
2021/12/27 12:36:51;;;;;;;7.07;4.85;;;;;;;;;;5012939;28;20033;-70
2021/12/27 12:39:16;;;;;;;6.90;4.93;;;;;;;;;;5015276;28;20032;-70
2021/12/27 12:41:42;;;;;;;5.28;4.18;;;;;;;;;;5031282;28;20054;-71
2021/12/27 12:44:07;;;;;;;6.38;4.43;;;;;;;;;;5014625;28;20464;-70
2021/12/27 12:46:36;;;;;;;7.45;5.05;;;;;;;;;;5031025;28;20030;-71
2021/12/27 12:49:06;;;;;;;6.70;4.88;;;;;;;;;;5032467;28;20026;-71
2021/12/27 12:51:33;;;;;;;7.72;5.35;;;;;;;;;;5032429;28;20371;-71
2021/12/27 12:53:58;;;;;;;6.35;4.68;;;;;;;;;;5015272;28;20041;-70
2021/12/27 12:56:30;;;;;;;7.93;5.20;;;;;;;;;;5031375;28;20474;-70
2021/12/27 12:58:55;;;;;;;8.32;5.82;;;;;;;;;;5016964;28;20105;-70
2021/12/27 13:01:20;;;;;;;12.18;7.18;;;;;;;;;;5032116;28;20457;-72
2021/12/27 13:03:46;;;;;;;9.52;5.97;;;;;;;;;;5024682;28;20140;-70
2021/12/27 13:06:11;;;;;;;6.63;4.85;;;;;;;;;;5029356;28;20021;-70
2021/12/27 13:08:36;;;;;;;6.22;4.43;;;;;;;;;;5033196;28;20390;-70
2021/12/27 13:11:02;;;;;;;6.30;4.65;;;;;;;;;;5028463;28;20021;-71
2021/12/27 13:13:27;;;;;;;5.93;4.40;;;;;;;;;;5031849;28;20138;-70
2021/12/27 13:16:00;;;;;;;7.18;4.50;;;;;;;;;;5012400;28;20033;-70
2021/12/27 13:18:26;;;;;;;7.05;4.70;;;;;;;;;;5027138;28;20025;-70
2021/12/27 13:20:53;;;;;;;6.85;4.68;;;;;;;;;;5030496;28;20504;-69
2021/12/27 13:23:20;;;;;;;5.93;4.50;;;;;;;;;;5013764;28;20029;-69
2021/12/27 13:25:49;;;;;;;7.60;5.05;;;;;;;;;;5032215;28;20104;-69
2021/12/27 13:28:23;;;;;;;6.90;5.00;;;;;;;;;;5007864;28;20116;-69
2021/12/27 13:30:53;;;;;;;6.47;5.07;;;;;;;;;;5030725;28;20052;-68
2021/12/27 13:33:20;;;;;;;7.50;5.30;;;;;;;;;;5005581;28;20080;-69
2021/12/27 13:35:47;;;;;;;8.05;5.72;;;;;;;;;;5028210;28;20025;-71
2021/12/27 13:38:20;;;;;;;8.13;5.45;;;;;;;;;;5032020;28;20094;-69
2021/12/27 13:40:50;;;;;;;6.53;4.97;;;;;;;;;;5025863;28;20498;-70
2021/12/27 13:43:15;;;;;;;8.15;5.40;;;;;;;;;;5031252;28;20052;-70
2021/12/27 13:45:42;;;;;;;7.75;5.43;;;;;;;;;;5031166;28;20475;-70
2021/12/27 13:48:09;;;;;;;6.70;4.53;;;;;;;;;;5030953;28;20079;-70
2021/12/27 13:50:35;;;;;;;7.03;4.97;;;;;;;;;;5031167;28;20121;-71
2021/12/27 13:53:08;;;;;;;6.03;4.38;;;;;;;;;;5031388;28;20091;-71
2021/12/27 13:55:33;;;;;;;6.47;4.75;;;;;;;;;;5029033;28;20071;-70
2021/12/27 13:58:10;;;;;;;6.93;5.00;;;;;;;;;;5028634;28;20026;-70
2021/12/27 14:00:36;;;;;;;6.78;4.85;;;;;;;;;;5032374;28;20022;-70
2021/12/27 14:03:01;;;;;;;7.15;4.72;;;;;;;;;;5012465;28;20037;-70
2021/12/27 14:05:28;;;;;;;6.38;5.13;;;;;;;;;;5029611;28;20561;-70
2021/12/27 14:07:53;;;;;;;6.70;4.78;;;;;;;;;;5031721;28;20036;-70
2021/12/27 14:10:20;;;;;;;7.90;4.50;;;;;;;;;;5011164;28;20461;-69
2021/12/27 14:12:54;;;;;;;7.20;4.60;;;;;;;;;;5015784;28;20029;-70
2021/12/27 14:15:25;;;;;;;6.43;4.65;;;;;;;;;;5032140;28;20035;-70
2021/12/27 14:17:52;;;;;;;7.95;5.13;;;;;;;;;;5040681;28;20021;-68
2021/12/27 14:20:18;;;;;;;6.47;4.28;;;;;;;;;;5035964;28;20026;-69
2021/12/27 14:22:44;;;;;;;6.65;4.78;;;;;;;;;;5027770;28;20094;-69
2021/12/27 14:25:11;;;;;;;7.22;4.45;;;;;;;;;;5019419;28;20037;-69
2021/12/27 14:27:45;;;;;;;6.53;4.72;;;;;;;;;;5030541;28;20144;-70
2021/12/27 14:30:15;;;;;;;7.18;5.00;;;;;;;;;;5014561;28;20033;-69
2021/12/27 14:32:42;;;;;;;7.38;5.13;;;;;;;;;;5026987;28;20018;-69
2021/12/27 14:35:18;;;;;;;8.10;5.00;;;;;;;;;;5019559;28;20018;-69
2021/12/27 14:37:44;;;;;;;7.72;5.07;;;;;;;;;;5011713;28;20014;-70
2021/12/27 14:40:09;;;;;;;9.07;5.38;;;;;;;;;;5004239;28;20107;-70
2021/12/27 14:42:34;;;;;;;9.13;5.82;;;;;;;;;;5027333;28;20395;-69